Jackson, Alabama
Current Conditions -  °F | °C
As of 5:53 PM on Sunday 23 Nov 2014 (Local Time) from KGZH Reporting Station
Few Clouds Few Clouds  
Wind Chill: 62°   Ceiling: Unl
Heat Index: 62°   Visibility: 10mi
Dew Point: 59°   Wind: 7mph
Humidity: 90%   Direction: 170°S
Pressure: 29.71"   Gusts: NA
Location:  31.51°N, 87.89°W
Report Text: KGZH 232353Z AUTO 17006KT 10SM FEW019 17/15 A2971 RMK AO2 SLP059 60014 T01670150 10222 20167 53014
Loading
Personal Weather Stations






























Interactive Weather Map New forecast layout! Learn more

10-Day Weather Forecast

Advertisements
Track Severe Weather on mobile